sensor_id;sensor_type;location;lat;lon;timestamp;P1;durP1;ratioP1;P2;durP2;ratioP2
48014;SDS011;33780;51.034;7.120;2023-12-20T00:02:04;8.98;;;6.30;;
48014;SDS011;33780;51.034;7.120;2023-12-20T00:04:30;9.32;;;6.32;;
48014;SDS011;33780;51.034;7.120;2023-12-20T00:06:55;8.40;;;6.25;;
48014;SDS011;33780;51.034;7.120;2023-12-20T00:09:20;8.75;;;6.47;;
48014;SDS011;33780;51.034;7.120;2023-12-20T00:11:45;9.48;;;6.63;;
48014;SDS011;33780;51.034;7.120;2023-12-20T00:14:11;8.05;;;6.18;;
48014;SDS011;33780;51.034;7.120;2023-12-20T00:16:36;8.63;;;6.55;;
48014;SDS011;33780;51.034;7.120;2023-12-20T00:19:01;8.63;;;6.53;;
48014;SDS011;33780;51.034;7.120;2023-12-20T00:21:27;8.75;;;6.22;;
48014;SDS011;33780;51.034;7.120;2023-12-20T00:23:52;7.95;;;6.00;;
48014;SDS011;33780;51.034;7.120;2023-12-20T00:26:17;9.05;;;6.32;;
48014;SDS011;33780;51.034;7.120;2023-12-20T00:28:43;8.75;;;6.22;;
48014;SDS011;33780;51.034;7.120;2023-12-20T00:31:08;9.63;;;6.63;;
48014;SDS011;33780;51.034;7.120;2023-12-20T00:33:33;8.52;;;5.97;;
48014;SDS011;33780;51.034;7.120;2023-12-20T00:35:58;7.90;;;5.97;;
48014;SDS011;33780;51.034;7.120;2023-12-20T00:38:24;7.35;;;4.80;;
48014;SDS011;33780;51.034;7.120;2023-12-20T00:40:49;5.82;;;3.55;;
48014;SDS011;33780;51.034;7.120;2023-12-20T00:43:14;4.45;;;2.67;;
48014;SDS011;33780;51.034;7.120;2023-12-20T00:45:40;3.28;;;2.22;;
48014;SDS011;33780;51.034;7.120;2023-12-20T00:48:05;3.65;;;2.13;;
48014;SDS011;33780;51.034;7.120;2023-12-20T00:50:31;3.50;;;2.05;;
48014;SDS011;33780;51.034;7.120;2023-12-20T00:52:57;3.70;;;2.40;;
48014;SDS011;33780;51.034;7.120;2023-12-20T00:55:22;3.47;;;2.00;;
48014;SDS011;33780;51.034;7.120;2023-12-20T00:57:47;4.57;;;2.65;;
48014;SDS011;33780;51.034;7.120;2023-12-20T01:00:13;3.97;;;2.30;;
48014;SDS011;33780;51.034;7.120;2023-12-20T01:02:39;4.63;;;2.47;;
48014;SDS011;33780;51.034;7.120;2023-12-20T01:05:05;4.38;;;2.40;;
48014;SDS011;33780;51.034;7.120;2023-12-20T01:07:32;4.40;;;2.90;;
48014;SDS011;33780;51.034;7.120;2023-12-20T01:09:57;5.68;;;2.53;;
48014;SDS011;33780;51.034;7.120;2023-12-20T01:12:22;6.20;;;2.67;;
48014;SDS011;33780;51.034;7.120;2023-12-20T01:14:48;5.18;;;2.45;;
48014;SDS011;33780;51.034;7.120;2023-12-20T01:17:13;4.85;;;2.55;;
48014;SDS011;33780;51.034;7.120;2023-12-20T01:19:39;4.28;;;2.78;;
48014;SDS011;33780;51.034;7.120;2023-12-20T01:22:04;4.45;;;2.65;;
48014;SDS011;33780;51.034;7.120;2023-12-20T01:24:30;4.90;;;2.67;;
48014;SDS011;33780;51.034;7.120;2023-12-20T01:26:55;5.15;;;2.90;;
48014;SDS011;33780;51.034;7.120;2023-12-20T01:29:20;6.25;;;3.15;;
48014;SDS011;33780;51.034;7.120;2023-12-20T01:31:45;6.25;;;3.22;;
48014;SDS011;33780;51.034;7.120;2023-12-20T01:34:11;5.90;;;3.40;;
48014;SDS011;33780;51.034;7.120;2023-12-20T01:36:36;6.00;;;2.90;;
48014;SDS011;33780;51.034;7.120;2023-12-20T01:39:01;7.95;;;3.38;;
48014;SDS011;33780;51.034;7.120;2023-12-20T01:41:27;6.90;;;3.50;;
48014;SDS011;33780;51.034;7.120;2023-12-20T01:43:52;7.20;;;3.55;;
48014;SDS011;33780;51.034;7.120;2023-12-20T01:46:18;6.95;;;3.75;;
48014;SDS011;33780;51.034;7.120;2023-12-20T01:48:45;6.07;;;3.50;;
48014;SDS011;33780;51.034;7.120;2023-12-20T01:51:11;7.47;;;3.42;;
48014;SDS011;33780;51.034;7.120;2023-12-20T01:53:37;6.70;;;3.40;;
48014;SDS011;33780;51.034;7.120;2023-12-20T01:56:05;5.97;;;3.17;;
48014;SDS011;33780;51.034;7.120;2023-12-20T01:58:30;7.38;;;4.13;;
48014;SDS011;33780;51.034;7.120;2023-12-20T02:00:56;6.18;;;3.97;;
48014;SDS011;33780;51.034;7.120;2023-12-20T02:03:22;7.65;;;4.45;;
48014;SDS011;33780;51.034;7.120;2023-12-20T02:05:47;7.70;;;4.32;;
48014;SDS011;33780;51.034;7.120;2023-12-20T02:08:13;9.23;;;4.40;;
48014;SDS011;33780;51.034;7.120;2023-12-20T02:10:38;9.02;;;5.05;;
48014;SDS011;33780;51.034;7.120;2023-12-20T02:13:05;8.93;;;4.50;;
48014;SDS011;33780;51.034;7.120;2023-12-20T02:15:31;8.00;;;4.57;;
48014;SDS011;33780;51.034;7.120;2023-12-20T02:17:56;9.45;;;4.60;;
48014;SDS011;33780;51.034;7.120;2023-12-20T02:20:22;6.90;;;4.63;;
48014;SDS011;33780;51.034;7.120;2023-12-20T02:22:47;8.18;;;4.75;;
48014;SDS011;33780;51.034;7.120;2023-12-20T02:25:12;8.68;;;4.60;;
48014;SDS011;33780;51.034;7.120;2023-12-20T02:27:38;7.82;;;4.60;;
48014;SDS011;33780;51.034;7.120;2023-12-20T02:30:05;8.68;;;4.28;;
48014;SDS011;33780;51.034;7.120;2023-12-20T02:32:30;8.13;;;4.40;;
48014;SDS011;33780;51.034;7.120;2023-12-20T02:34:56;8.02;;;4.50;;
48014;SDS011;33780;51.034;7.120;2023-12-20T02:37:21;9.07;;;4.25;;
48014;SDS011;33780;51.034;7.120;2023-12-20T02:39:47;7.22;;;4.07;;
48014;SDS011;33780;51.034;7.120;2023-12-20T02:42:12;7.28;;;3.78;;
48014;SDS011;33780;51.034;7.120;2023-12-20T02:44:37;9.05;;;3.78;;
48014;SDS011;33780;51.034;7.120;2023-12-20T02:47:03;11.73;;;4.63;;
48014;SDS011;33780;51.034;7.120;2023-12-20T02:49:28;10.07;;;3.47;;
48014;SDS011;33780;51.034;7.120;2023-12-20T02:51:53;8.25;;;3.88;;
48014;SDS011;33780;51.034;7.120;2023-12-20T02:54:19;9.52;;;3.30;;
48014;SDS011;33780;51.034;7.120;2023-12-20T02:56:44;11.10;;;3.72;;
48014;SDS011;33780;51.034;7.120;2023-12-20T02:59:09;9.35;;;3.72;;
48014;SDS011;33780;51.034;7.120;2023-12-20T03:01:35;9.40;;;4.07;;
48014;SDS011;33780;51.034;7.120;2023-12-20T03:04:00;9.88;;;4.25;;
48014;SDS011;33780;51.034;7.120;2023-12-20T03:06:26;10.60;;;4.30;;
48014;SDS011;33780;51.034;7.120;2023-12-20T03:08:51;8.10;;;3.95;;
48014;SDS011;33780;51.034;7.120;2023-12-20T03:11:17;12.95;;;4.18;;
48014;SDS011;33780;51.034;7.120;2023-12-20T03:13:42;7.68;;;3.60;;
48014;SDS011;33780;51.034;7.120;2023-12-20T03:16:08;9.15;;;3.55;;
48014;SDS011;33780;51.034;7.120;2023-12-20T03:18:34;5.88;;;3.15;;
48014;SDS011;33780;51.034;7.120;2023-12-20T03:20:59;11.00;;;2.70;;
48014;SDS011;33780;51.034;7.120;2023-12-20T03:23:24;7.45;;;3.20;;
48014;SDS011;33780;51.034;7.120;2023-12-20T03:25:51;8.05;;;2.55;;
48014;SDS011;33780;51.034;7.120;2023-12-20T03:28:16;11.15;;;2.65;;
48014;SDS011;33780;51.034;7.120;2023-12-20T03:30:41;8.05;;;2.28;;
48014;SDS011;33780;51.034;7.120;2023-12-20T03:33:07;5.38;;;2.20;;
48014;SDS011;33780;51.034;7.120;2023-12-20T03:35:32;7.25;;;2.20;;
48014;SDS011;33780;51.034;7.120;2023-12-20T03:37:57;10.75;;;2.05;;
48014;SDS011;33780;51.034;7.120;2023-12-20T03:40:25;8.60;;;2.20;;
48014;SDS011;33780;51.034;7.120;2023-12-20T03:42:50;5.07;;;1.70;;
48014;SDS011;33780;51.034;7.120;2023-12-20T03:45:15;7.25;;;1.85;;
48014;SDS011;33780;51.034;7.120;2023-12-20T03:47:40;8.88;;;2.05;;
48014;SDS011;33780;51.034;7.120;2023-12-20T03:50:06;10.52;;;2.42;;
48014;SDS011;33780;51.034;7.120;2023-12-20T03:52:31;10.18;;;2.33;;
48014;SDS011;33780;51.034;7.120;2023-12-20T03:54:57;9.35;;;2.83;;
48014;SDS011;33780;51.034;7.120;2023-12-20T03:57:22;8.65;;;2.70;;
48014;SDS011;33780;51.034;7.120;2023-12-20T03:59:47;9.95;;;2.60;;
48014;SDS011;33780;51.034;7.120;2023-12-20T04:02:13;9.65;;;2.92;;
48014;SDS011;33780;51.034;7.120;2023-12-20T04:04:38;13.68;;;2.70;;
48014;SDS011;33780;51.034;7.120;2023-12-20T04:07:03;12.05;;;3.50;;
48014;SDS011;33780;51.034;7.120;2023-12-20T04:09:28;15.50;;;3.42;;
48014;SDS011;33780;51.034;7.120;2023-12-20T04:11:54;7.85;;;2.63;;
48014;SDS011;33780;51.034;7.120;2023-12-20T04:14:19;10.68;;;2.45;;
48014;SDS011;33780;51.034;7.120;2023-12-20T04:16:44;8.93;;;2.72;;
48014;SDS011;33780;51.034;7.120;2023-12-20T04:19:09;9.13;;;2.05;;
48014;SDS011;33780;51.034;7.120;2023-12-20T04:21:35;11.95;;;2.47;;
48014;SDS011;33780;51.034;7.120;2023-12-20T04:24:00;12.95;;;3.00;;
48014;SDS011;33780;51.034;7.120;2023-12-20T04:26:25;7.93;;;2.05;;
48014;SDS011;33780;51.034;7.120;2023-12-20T04:28:50;7.03;;;2.08;;
48014;SDS011;33780;51.034;7.120;2023-12-20T04:31:16;7.68;;;2.08;;
48014;SDS011;33780;51.034;7.120;2023-12-20T04:33:41;9.32;;;2.30;;
48014;SDS011;33780;51.034;7.120;2023-12-20T04:36:06;8.10;;;2.70;;
48014;SDS011;33780;51.034;7.120;2023-12-20T04:38:34;8.73;;;2.38;;
48014;SDS011;33780;51.034;7.120;2023-12-20T04:40:59;9.88;;;2.38;;
48014;SDS011;33780;51.034;7.120;2023-12-20T04:43:24;9.50;;;2.70;;
48014;SDS011;33780;51.034;7.120;2023-12-20T04:45:49;10.43;;;2.75;;
48014;SDS011;33780;51.034;7.120;2023-12-20T04:48:15;9.10;;;2.75;;
48014;SDS011;33780;51.034;7.120;2023-12-20T04:50:40;10.63;;;2.92;;
48014;SDS011;33780;51.034;7.120;2023-12-20T04:53:05;9.35;;;3.33;;
48014;SDS011;33780;51.034;7.120;2023-12-20T04:55:30;8.20;;;3.17;;
48014;SDS011;33780;51.034;7.120;2023-12-20T04:57:56;9.98;;;3.70;;
48014;SDS011;33780;51.034;7.120;2023-12-20T05:00:21;9.13;;;3.65;;
48014;SDS011;33780;51.034;7.120;2023-12-20T05:02:46;9.10;;;3.40;;
48014;SDS011;33780;51.034;7.120;2023-12-20T05:05:12;11.65;;;3.38;;
48014;SDS011;33780;51.034;7.120;2023-12-20T05:07:37;11.23;;;3.38;;
48014;SDS011;33780;51.034;7.120;2023-12-20T05:10:03;14.82;;;4.57;;
48014;SDS011;33780;51.034;7.120;2023-12-20T05:12:29;12.55;;;3.75;;
48014;SDS011;33780;51.034;7.120;2023-12-20T05:14:55;17.73;;;5.65;;
48014;SDS011;33780;51.034;7.120;2023-12-20T05:17:21;12.40;;;4.63;;
48014;SDS011;33780;51.034;7.120;2023-12-20T05:19:46;12.70;;;3.90;;
48014;SDS011;33780;51.034;7.120;2023-12-20T05:22:11;12.23;;;4.38;;
48014;SDS011;33780;51.034;7.120;2023-12-20T05:24:36;15.55;;;4.20;;
48014;SDS011;33780;51.034;7.120;2023-12-20T05:27:02;15.27;;;5.70;;
48014;SDS011;33780;51.034;7.120;2023-12-20T05:29:27;10.52;;;3.88;;
48014;SDS011;33780;51.034;7.120;2023-12-20T05:31:52;10.30;;;3.60;;
48014;SDS011;33780;51.034;7.120;2023-12-20T05:34:18;13.82;;;3.90;;
48014;SDS011;33780;51.034;7.120;2023-12-20T05:36:43;11.18;;;4.00;;
48014;SDS011;33780;51.034;7.120;2023-12-20T05:39:08;12.32;;;3.85;;
48014;SDS011;33780;51.034;7.120;2023-12-20T05:41:34;11.65;;;4.18;;
48014;SDS011;33780;51.034;7.120;2023-12-20T05:43:59;12.45;;;4.07;;
48014;SDS011;33780;51.034;7.120;2023-12-20T05:46:24;13.30;;;4.55;;
48014;SDS011;33780;51.034;7.120;2023-12-20T05:48:50;14.77;;;4.45;;
48014;SDS011;33780;51.034;7.120;2023-12-20T05:51:16;12.63;;;4.10;;
48014;SDS011;33780;51.034;7.120;2023-12-20T05:53:43;11.27;;;4.28;;
48014;SDS011;33780;51.034;7.120;2023-12-20T05:56:09;11.07;;;4.40;;
48014;SDS011;33780;51.034;7.120;2023-12-20T05:58:34;13.98;;;4.40;;
48014;SDS011;33780;51.034;7.120;2023-12-20T06:01:00;10.05;;;3.85;;
48014;SDS011;33780;51.034;7.120;2023-12-20T06:03:25;9.98;;;3.83;;
48014;SDS011;33780;51.034;7.120;2023-12-20T06:05:50;12.52;;;4.35;;
48014;SDS011;33780;51.034;7.120;2023-12-20T06:08:15;13.27;;;3.88;;
48014;SDS011;33780;51.034;7.120;2023-12-20T06:10:41;13.88;;;4.63;;
48014;SDS011;33780;51.034;7.120;2023-12-20T06:13:06;11.55;;;4.28;;
48014;SDS011;33780;51.034;7.120;2023-12-20T06:15:32;12.95;;;3.83;;
48014;SDS011;33780;51.034;7.120;2023-12-20T06:17:57;9.52;;;4.22;;
48014;SDS011;33780;51.034;7.120;2023-12-20T06:20:23;13.43;;;4.35;;
48014;SDS011;33780;51.034;7.120;2023-12-20T06:22:48;15.15;;;4.15;;
48014;SDS011;33780;51.034;7.120;2023-12-20T06:25:13;10.52;;;3.40;;
48014;SDS011;33780;51.034;7.120;2023-12-20T06:27:39;12.63;;;3.60;;
48014;SDS011;33780;51.034;7.120;2023-12-20T06:30:06;8.57;;;3.50;;
48014;SDS011;33780;51.034;7.120;2023-12-20T06:32:32;9.02;;;3.38;;
48014;SDS011;33780;51.034;7.120;2023-12-20T06:34:57;8.18;;;3.70;;
48014;SDS011;33780;51.034;7.120;2023-12-20T06:37:22;9.55;;;3.63;;
48014;SDS011;33780;51.034;7.120;2023-12-20T06:39:47;9.38;;;3.20;;
48014;SDS011;33780;51.034;7.120;2023-12-20T06:42:13;10.60;;;3.53;;
48014;SDS011;33780;51.034;7.120;2023-12-20T06:44:38;10.88;;;3.50;;
48014;SDS011;33780;51.034;7.120;2023-12-20T06:47:04;13.98;;;3.50;;
48014;SDS011;33780;51.034;7.120;2023-12-20T06:49:29;11.02;;;3.60;;
48014;SDS011;33780;51.034;7.120;2023-12-20T06:51:54;10.23;;;3.30;;
48014;SDS011;33780;51.034;7.120;2023-12-20T06:54:20;11.98;;;3.55;;
48014;SDS011;33780;51.034;7.120;2023-12-20T06:56:45;12.95;;;3.40;;
48014;SDS011;33780;51.034;7.120;2023-12-20T06:59:10;11.40;;;3.40;;
48014;SDS011;33780;51.034;7.120;2023-12-20T07:01:35;12.27;;;3.35;;
48014;SDS011;33780;51.034;7.120;2023-12-20T07:04:01;13.75;;;3.42;;
48014;SDS011;33780;51.034;7.120;2023-12-20T07:06:26;14.48;;;3.47;;
48014;SDS011;33780;51.034;7.120;2023-12-20T07:08:52;10.40;;;3.17;;
48014;SDS011;33780;51.034;7.120;2023-12-20T07:11:17;12.65;;;3.42;;
48014;SDS011;33780;51.034;7.120;2023-12-20T07:13:43;14.55;;;3.50;;
48014;SDS011;33780;51.034;7.120;2023-12-20T07:16:08;11.30;;;3.15;;
48014;SDS011;33780;51.034;7.120;2023-12-20T07:18:33;10.63;;;3.92;;
48014;SDS011;33780;51.034;7.120;2023-12-20T07:20:58;10.35;;;3.00;;
48014;SDS011;33780;51.034;7.120;2023-12-20T07:23:24;11.73;;;3.15;;
48014;SDS011;33780;51.034;7.120;2023-12-20T07:25:50;11.63;;;3.30;;
48014;SDS011;33780;51.034;7.120;2023-12-20T07:28:16;14.15;;;3.28;;
48014;SDS011;33780;51.034;7.120;2023-12-20T07:30:41;11.82;;;2.78;;
48014;SDS011;33780;51.034;7.120;2023-12-20T07:33:06;9.25;;;2.78;;
48014;SDS011;33780;51.034;7.120;2023-12-20T07:35:33;7.32;;;2.42;;
48014;SDS011;33780;51.034;7.120;2023-12-20T07:37:59;10.57;;;3.10;;
48014;SDS011;33780;51.034;7.120;2023-12-20T07:40:24;10.00;;;2.75;;
48014;SDS011;33780;51.034;7.120;2023-12-20T07:42:49;11.70;;;3.00;;
48014;SDS011;33780;51.034;7.120;2023-12-20T07:45:15;7.35;;;2.35;;
48014;SDS011;33780;51.034;7.120;2023-12-20T07:47:40;11.40;;;3.00;;
48014;SDS011;33780;51.034;7.120;2023-12-20T07:50:06;12.50;;;2.90;;
48014;SDS011;33780;51.034;7.120;2023-12-20T07:52:31;14.80;;;3.13;;
48014;SDS011;33780;51.034;7.120;2023-12-20T07:54:56;11.00;;;2.88;;
48014;SDS011;33780;51.034;7.120;2023-12-20T07:57:23;8.23;;;2.70;;
48014;SDS011;33780;51.034;7.120;2023-12-20T07:59:48;11.55;;;3.03;;
48014;SDS011;33780;51.034;7.120;2023-12-20T08:02:14;8.20;;;2.78;;
48014;SDS011;33780;51.034;7.120;2023-12-20T08:04:39;8.95;;;2.85;;
48014;SDS011;33780;51.034;7.120;2023-12-20T08:07:05;8.80;;;3.03;;
48014;SDS011;33780;51.034;7.120;2023-12-20T08:09:31;10.55;;;2.55;;
48014;SDS011;33780;51.034;7.120;2023-12-20T08:11:58;9.85;;;2.80;;
48014;SDS011;33780;51.034;7.120;2023-12-20T08:14:24;8.38;;;3.10;;
48014;SDS011;33780;51.034;7.120;2023-12-20T08:16:50;12.52;;;3.72;;
48014;SDS011;33780;51.034;7.120;2023-12-20T08:19:15;8.77;;;2.95;;
48014;SDS011;33780;51.034;7.120;2023-12-20T08:21:40;11.13;;;3.20;;
48014;SDS011;33780;51.034;7.120;2023-12-20T08:24:06;14.48;;;4.47;;
48014;SDS011;33780;51.034;7.120;2023-12-20T08:26:33;15.70;;;3.72;;
48014;SDS011;33780;51.034;7.120;2023-12-20T08:28:58;14.35;;;3.53;;
48014;SDS011;33780;51.034;7.120;2023-12-20T08:31:23;12.80;;;3.55;;
48014;SDS011;33780;51.034;7.120;2023-12-20T08:33:49;11.60;;;3.92;;
48014;SDS011;33780;51.034;7.120;2023-12-20T08:36:14;12.88;;;3.50;;
48014;SDS011;33780;51.034;7.120;2023-12-20T08:38:40;12.95;;;3.78;;
48014;SDS011;33780;51.034;7.120;2023-12-20T08:41:06;10.43;;;3.20;;
48014;SDS011;33780;51.034;7.120;2023-12-20T08:43:31;11.50;;;4.13;;
48014;SDS011;33780;51.034;7.120;2023-12-20T08:45:57;11.88;;;3.40;;
48014;SDS011;33780;51.034;7.120;2023-12-20T08:48:22;9.32;;;3.97;;
48014;SDS011;33780;51.034;7.120;2023-12-20T08:50:48;11.70;;;4.18;;
48014;SDS011;33780;51.034;7.120;2023-12-20T08:53:15;12.75;;;3.60;;
48014;SDS011;33780;51.034;7.120;2023-12-20T08:55:41;10.70;;;3.67;;
48014;SDS011;33780;51.034;7.120;2023-12-20T08:58:06;11.80;;;3.38;;
48014;SDS011;33780;51.034;7.120;2023-12-20T09:00:33;11.70;;;3.40;;
48014;SDS011;33780;51.034;7.120;2023-12-20T09:02:58;19.73;;;5.07;;
48014;SDS011;33780;51.034;7.120;2023-12-20T09:05:24;15.27;;;3.88;;
48014;SDS011;33780;51.034;7.120;2023-12-20T09:07:50;11.00;;;3.88;;
48014;SDS011;33780;51.034;7.120;2023-12-20T09:10:15;13.80;;;4.47;;
48014;SDS011;33780;51.034;7.120;2023-12-20T09:12:40;12.98;;;3.97;;
48014;SDS011;33780;51.034;7.120;2023-12-20T09:15:07;9.60;;;3.42;;
48014;SDS011;33780;51.034;7.120;2023-12-20T09:17:33;14.48;;;3.20;;
48014;SDS011;33780;51.034;7.120;2023-12-20T09:19:58;13.80;;;3.45;;
48014;SDS011;33780;51.034;7.120;2023-12-20T09:22:24;14.68;;;3.90;;
48014;SDS011;33780;51.034;7.120;2023-12-20T09:24:50;9.30;;;2.60;;
48014;SDS011;33780;51.034;7.120;2023-12-20T09:27:15;9.93;;;3.10;;
48014;SDS011;33780;51.034;7.120;2023-12-20T09:29:41;14.82;;;3.05;;
48014;SDS011;33780;51.034;7.120;2023-12-20T09:32:06;12.40;;;3.25;;
48014;SDS011;33780;51.034;7.120;2023-12-20T09:34:31;12.55;;;3.33;;
48014;SDS011;33780;51.034;7.120;2023-12-20T09:36:57;12.95;;;2.90;;
48014;SDS011;33780;51.034;7.120;2023-12-20T09:39:22;9.90;;;3.03;;
48014;SDS011;33780;51.034;7.120;2023-12-20T09:42:01;9.55;;;2.60;;
48014;SDS011;33780;51.034;7.120;2023-12-20T09:44:29;8.70;;;2.47;;
48014;SDS011;33780;51.034;7.120;2023-12-20T09:46:55;13.15;;;2.40;;
48014;SDS011;33780;51.034;7.120;2023-12-20T09:49:21;11.30;;;2.50;;
48014;SDS011;33780;51.034;7.120;2023-12-20T09:51:47;7.65;;;3.10;;
48014;SDS011;33780;51.034;7.120;2023-12-20T09:54:19;12.25;;;2.70;;
48014;SDS011;33780;51.034;7.120;2023-12-20T09:59:11;8.80;;;2.10;;
48014;SDS011;33780;51.034;7.120;2023-12-20T10:01:38;8.55;;;2.60;;
48014;SDS011;33780;51.034;7.120;2023-12-20T10:04:08;12.23;;;2.83;;
48014;SDS011;33780;51.034;7.120;2023-12-20T10:06:37;7.78;;;1.90;;
48014;SDS011;33780;51.034;7.120;2023-12-20T10:09:04;9.27;;;2.40;;
48014;SDS011;33780;51.034;7.120;2023-12-20T10:11:30;7.40;;;2.17;;
48014;SDS011;33780;51.034;7.120;2023-12-20T10:13:59;10.95;;;2.17;;
48014;SDS011;33780;51.034;7.120;2023-12-20T10:16:26;6.88;;;2.10;;
48014;SDS011;33780;51.034;7.120;2023-12-20T10:18:55;10.02;;;2.10;;
48014;SDS011;33780;51.034;7.120;2023-12-20T10:21:24;7.18;;;2.10;;
48014;SDS011;33780;51.034;7.120;2023-12-20T10:23:56;9.25;;;2.05;;
48014;SDS011;33780;51.034;7.120;2023-12-20T10:26:23;9.70;;;2.72;;
48014;SDS011;33780;51.034;7.120;2023-12-20T10:28:50;7.13;;;2.35;;
48014;SDS011;33780;51.034;7.120;2023-12-20T10:36:57;11.13;;;2.40;;
48014;SDS011;33780;51.034;7.120;2023-12-20T10:39:24;7.95;;;2.17;;
48014;SDS011;33780;51.034;7.120;2023-12-20T10:41:49;9.65;;;2.25;;
48014;SDS011;33780;51.034;7.120;2023-12-20T10:44:14;5.68;;;1.92;;
48014;SDS011;33780;51.034;7.120;2023-12-20T10:46:41;7.22;;;1.98;;
48014;SDS011;33780;51.034;7.120;2023-12-20T10:49:12;7.20;;;1.80;;
48014;SDS011;33780;51.034;7.120;2023-12-20T10:51:39;10.20;;;2.28;;
48014;SDS011;33780;51.034;7.120;2023-12-20T10:54:05;9.38;;;2.17;;
48014;SDS011;33780;51.034;7.120;2023-12-20T10:56:32;12.05;;;2.05;;
48014;SDS011;33780;51.034;7.120;2023-12-20T10:58:58;8.35;;;2.03;;
48014;SDS011;33780;51.034;7.120;2023-12-20T11:01:28;8.93;;;2.42;;
48014;SDS011;33780;51.034;7.120;2023-12-20T11:03:54;8.60;;;2.55;;
48014;SDS011;33780;51.034;7.120;2023-12-20T11:14:18;9.63;;;2.53;;
48014;SDS011;33780;51.034;7.120;2023-12-20T11:16:48;8.60;;;2.45;;
48014;SDS011;33780;51.034;7.120;2023-12-20T11:19:14;12.02;;;2.72;;
48014;SDS011;33780;51.034;7.120;2023-12-20T11:21:39;8.38;;;2.10;;
48014;SDS011;33780;51.034;7.120;2023-12-20T11:24:05;8.80;;;2.10;;
48014;SDS011;33780;51.034;7.120;2023-12-20T11:26:30;8.65;;;2.05;;
48014;SDS011;33780;51.034;7.120;2023-12-20T11:34:46;5.88;;;2.40;;
48014;SDS011;33780;51.034;7.120;2023-12-20T11:37:12;6.85;;;2.28;;
48014;SDS011;33780;51.034;7.120;2023-12-20T11:39:38;6.65;;;2.30;;
48014;SDS011;33780;51.034;7.120;2023-12-20T11:42:06;9.13;;;2.30;;
48014;SDS011;33780;51.034;7.120;2023-12-20T11:44:32;9.52;;;2.60;;
48014;SDS011;33780;51.034;7.120;2023-12-20T11:46:58;8.65;;;2.55;;
48014;SDS011;33780;51.034;7.120;2023-12-20T11:49:24;7.53;;;2.35;;
48014;SDS011;33780;51.034;7.120;2023-12-20T11:51:50;8.85;;;2.33;;
48014;SDS011;33780;51.034;7.120;2023-12-20T11:54:15;8.95;;;2.50;;
48014;SDS011;33780;51.034;7.120;2023-12-20T11:56:41;8.85;;;1.98;;
48014;SDS011;33780;51.034;7.120;2023-12-20T11:59:07;11.90;;;2.25;;
48014;SDS011;33780;51.034;7.120;2023-12-20T12:01:33;9.48;;;2.17;;
48014;SDS011;33780;51.034;7.120;2023-12-20T12:04:02;11.02;;;2.35;;
48014;SDS011;33780;51.034;7.120;2023-12-20T12:06:28;5.85;;;2.13;;
48014;SDS011;33780;51.034;7.120;2023-12-20T12:08:54;7.93;;;2.40;;
48014;SDS011;33780;51.034;7.120;2023-12-20T12:11:20;7.93;;;2.10;;
48014;SDS011;33780;51.034;7.120;2023-12-20T12:13:46;9.32;;;2.30;;
48014;SDS011;33780;51.034;7.120;2023-12-20T12:16:11;9.70;;;2.05;;
48014;SDS011;33780;51.034;7.120;2023-12-20T12:18:37;12.80;;;3.92;;
48014;SDS011;33780;51.034;7.120;2023-12-20T12:21:02;11.57;;;2.78;;
48014;SDS011;33780;51.034;7.120;2023-12-20T12:23:28;11.23;;;2.40;;
48014;SDS011;33780;51.034;7.120;2023-12-20T12:25:53;12.85;;;2.75;;
48014;SDS011;33780;51.034;7.120;2023-12-20T12:28:20;9.95;;;2.10;;
48014;SDS011;33780;51.034;7.120;2023-12-20T12:30:58;6.80;;;2.15;;
48014;SDS011;33780;51.034;7.120;2023-12-20T12:33:27;6.93;;;2.22;;
48014;SDS011;33780;51.034;7.120;2023-12-20T12:35:52;9.77;;;2.33;;
48014;SDS011;33780;51.034;7.120;2023-12-20T12:38:21;6.07;;;2.33;;
48014;SDS011;33780;51.034;7.120;2023-12-20T12:40:47;10.20;;;2.55;;
48014;SDS011;33780;51.034;7.120;2023-12-20T12:43:12;13.68;;;2.70;;
48014;SDS011;33780;51.034;7.120;2023-12-20T12:45:37;9.77;;;2.40;;
48014;SDS011;33780;51.034;7.120;2023-12-20T12:48:03;7.45;;;2.25;;
48014;SDS011;33780;51.034;7.120;2023-12-20T12:50:30;6.20;;;2.22;;
48014;SDS011;33780;51.034;7.120;2023-12-20T12:52:56;7.60;;;2.45;;
48014;SDS011;33780;51.034;7.120;2023-12-20T12:55:21;8.90;;;2.53;;
48014;SDS011;33780;51.034;7.120;2023-12-20T12:57:46;10.02;;;2.58;;
48014;SDS011;33780;51.034;7.120;2023-12-20T13:00:12;13.25;;;3.20;;
48014;SDS011;33780;51.034;7.120;2023-12-20T13:02:38;9.10;;;2.47;;
48014;SDS011;33780;51.034;7.120;2023-12-20T13:05:06;10.98;;;2.85;;
48014;SDS011;33780;51.034;7.120;2023-12-20T13:07:32;9.18;;;2.42;;
48014;SDS011;33780;51.034;7.120;2023-12-20T13:09:58;8.55;;;2.67;;
48014;SDS011;33780;51.034;7.120;2023-12-20T13:12:23;9.18;;;3.35;;
48014;SDS011;33780;51.034;7.120;2023-12-20T13:14:48;12.27;;;3.00;;
48014;SDS011;33780;51.034;7.120;2023-12-20T13:17:14;10.10;;;2.90;;
48014;SDS011;33780;51.034;7.120;2023-12-20T13:19:40;13.00;;;2.90;;
48014;SDS011;33780;51.034;7.120;2023-12-20T13:22:08;9.07;;;2.63;;
48014;SDS011;33780;51.034;7.120;2023-12-20T13:24:34;9.02;;;2.38;;
48014;SDS011;33780;51.034;7.120;2023-12-20T13:26:59;8.18;;;2.55;;
48014;SDS011;33780;51.034;7.120;2023-12-20T13:29:25;9.27;;;2.67;;
48014;SDS011;33780;51.034;7.120;2023-12-20T13:31:53;9.88;;;3.00;;
48014;SDS011;33780;51.034;7.120;2023-12-20T13:34:18;8.90;;;2.97;;
48014;SDS011;33780;51.034;7.120;2023-12-20T13:36:44;6.93;;;2.50;;
48014;SDS011;33780;51.034;7.120;2023-12-20T13:39:14;11.32;;;2.78;;
48014;SDS011;33780;51.034;7.120;2023-12-20T13:41:40;9.77;;;2.90;;
48014;SDS011;33780;51.034;7.120;2023-12-20T13:44:05;11.05;;;2.92;;
48014;SDS011;33780;51.034;7.120;2023-12-20T13:46:30;8.82;;;3.08;;
48014;SDS011;33780;51.034;7.120;2023-12-20T13:48:56;8.52;;;3.15;;
48014;SDS011;33780;51.034;7.120;2023-12-20T13:51:21;9.13;;;2.70;;
48014;SDS011;33780;51.034;7.120;2023-12-20T13:53:47;8.95;;;2.60;;
48014;SDS011;33780;51.034;7.120;2023-12-20T13:56:13;13.13;;;3.50;;
48014;SDS011;33780;51.034;7.120;2023-12-20T13:58:39;7.68;;;2.58;;
48014;SDS011;33780;51.034;7.120;2023-12-20T14:01:05;10.13;;;2.78;;
48014;SDS011;33780;51.034;7.120;2023-12-20T14:03:30;8.23;;;2.60;;
48014;SDS011;33780;51.034;7.120;2023-12-20T14:05:56;6.93;;;2.45;;
48014;SDS011;33780;51.034;7.120;2023-12-20T14:08:21;7.47;;;2.67;;
48014;SDS011;33780;51.034;7.120;2023-12-20T14:10:47;6.18;;;2.72;;
48014;SDS011;33780;51.034;7.120;2023-12-20T14:13:12;7.80;;;2.45;;
48014;SDS011;33780;51.034;7.120;2023-12-20T14:15:37;7.72;;;2.80;;
48014;SDS011;33780;51.034;7.120;2023-12-20T14:18:04;8.70;;;2.42;;
48014;SDS011;33780;51.034;7.120;2023-12-20T14:20:31;10.55;;;2.70;;
48014;SDS011;33780;51.034;7.120;2023-12-20T14:22:57;7.43;;;2.35;;
48014;SDS011;33780;51.034;7.120;2023-12-20T14:25:22;9.15;;;2.80;;
48014;SDS011;33780;51.034;7.120;2023-12-20T14:27:48;9.35;;;3.03;;
48014;SDS011;33780;51.034;7.120;2023-12-20T14:30:13;6.72;;;2.70;;
48014;SDS011;33780;51.034;7.120;2023-12-20T14:32:39;6.57;;;2.63;;
48014;SDS011;33780;51.034;7.120;2023-12-20T14:35:08;4.95;;;2.40;;
48014;SDS011;33780;51.034;7.120;2023-12-20T14:37:34;6.03;;;2.80;;
48014;SDS011;33780;51.034;7.120;2023-12-20T14:40:04;11.35;;;3.15;;
48014;SDS011;33780;51.034;7.120;2023-12-20T14:42:31;6.63;;;2.53;;
48014;SDS011;33780;51.034;7.120;2023-12-20T14:44:57;7.85;;;2.38;;
48014;SDS011;33780;51.034;7.120;2023-12-20T14:47:23;6.45;;;2.53;;
48014;SDS011;33780;51.034;7.120;2023-12-20T14:49:49;11.15;;;2.85;;
48014;SDS011;33780;51.034;7.120;2023-12-20T14:52:17;7.45;;;2.97;;
48014;SDS011;33780;51.034;7.120;2023-12-20T14:54:42;8.63;;;2.65;;
48014;SDS011;33780;51.034;7.120;2023-12-20T14:57:08;5.78;;;2.40;;